Time;durP1;ratioP1;P1;durP2;ratioP2;P2;SDS_P1;SDS_P2;PMS_P1;PMS_P2;Temp;Humidity;BMP_temperature;BMP_pressure;BME280_temperature;BME280_humidity;BME280_pressure;Samples;Min_cycle;Max_cycle;Signal;HPM_P1;HPM_P2
2023/01/15 00:01:33;;;;;;;;;;;;;;;7.65;61.58;98941.28;4440301;32;20085;-82
2023/01/15 00:03:59;;;;;;;33.75;16.05;;;;;;;7.68;61.36;98954.25;4413635;32;19969;-82
2023/01/15 00:06:25;;;;;;;39.72;17.15;;;;;;;7.68;61.10;98942.00;4439848;32;20163;-82
2023/01/15 00:08:52;;;;;;;42.20;18.50;;;;;;;7.63;61.27;98940.47;4439574;32;20104;-81
2023/01/15 00:11:17;;;;;;;39.00;17.65;;;;;;;7.62;61.34;98937.00;4425859;32;20115;-82
2023/01/15 00:13:43;;;;;;;41.88;18.65;;;;;;;7.70;61.10;98930.59;4439427;32;20078;-82
2023/01/15 00:16:14;;;;;;;41.50;17.75;;;;;;;7.64;61.28;98932.53;4426062;32;20169;-81
2023/01/15 00:18:40;;;;;;;37.65;16.70;;;;;;;7.53;61.52;98939.97;4441561;32;20584;-81
2023/01/15 00:21:07;;;;;;;42.50;18.77;;;;;;;7.59;61.53;98931.03;4441462;32;20111;-81
2023/01/15 00:29:04;;;;;;;37.22;18.02;;;;;;;7.57;61.74;98930.22;4429604;32;20218;-82
2023/01/15 00:31:30;;;;;;;43.22;17.52;;;;;;;7.63;61.55;98923.00;4441496;32;20098;-82
2023/01/15 00:33:55;;;;;;;36.85;16.27;;;;;;;7.60;61.74;98917.00;4427418;32;20455;-82
2023/01/15 00:36:21;;;;;;;40.85;16.83;;;;;;;7.67;61.27;98913.22;4427239;32;20113;-82
2023/01/15 00:38:46;;;;;;;44.67;17.02;;;;;;;7.65;61.33;98918.53;4427352;32;20098;-81
2023/01/15 00:41:12;;;;;;;39.00;17.75;;;;;;;7.67;61.22;98910.63;4427404;32;20184;-82
2023/01/15 00:43:37;;;;;;;45.50;18.05;;;;;;;7.63;61.15;98912.50;4441320;32;20070;-82
2023/01/15 00:46:04;;;;;;;38.15;16.45;;;;;;;7.63;61.06;98914.25;4427275;32;20446;-82
2023/01/15 00:48:30;;;;;;;37.63;16.75;;;;;;;7.61;61.18;98905.59;4441266;32;20101;-82
2023/01/15 00:50:56;;;;;;;36.78;17.17;;;;;;;7.59;61.28;98902.19;4441241;32;20089;-82
2023/01/15 00:53:21;;;;;;;40.45;16.00;;;;;;;7.62;60.82;98909.94;4414330;32;20441;-81
2023/01/15 00:55:47;;;;;;;32.35;15.45;;;;;;;7.54;60.82;98915.50;4427232;32;20125;-82
2023/01/15 00:58:12;;;;;;;42.25;15.80;;;;;;;7.50;60.58;98915.69;4439411;32;20158;-81
2023/01/15 01:00:38;;;;;;;38.38;15.95;;;;;;;7.44;60.60;98915.00;4432995;32;20085;-81
2023/01/15 01:03:03;;;;;;;50.45;17.55;;;;;;;7.42;60.83;98910.75;4411940;32;20078;-81
2023/01/15 01:05:30;;;;;;;38.60;18.00;;;;;;;7.37;61.08;98915.31;4411793;32;20110;-82
2023/01/15 01:07:58;;;;;;;51.55;16.48;;;;;;;7.45;61.23;98907.97;4425723;32;20689;-82
2023/01/15 01:10:24;;;;;;;31.62;14.52;;;;;;;7.46;61.27;98891.34;4424513;32;20090;-82
2023/01/15 01:12:53;;;;;;;33.15;15.30;;;;;;;7.51;61.05;98894.63;4411820;32;20112;-82
2023/01/15 01:15:22;;;;;;;44.85;16.48;;;;;;;7.50;61.16;98897.34;4425804;32;20120;-82
2023/01/15 01:17:48;;;;;;;37.30;14.98;;;;;;;7.42;61.16;98900.25;4411814;32;20481;-81
2023/01/15 01:20:15;;;;;;;33.03;14.35;;;;;;;7.46;61.01;98900.06;4425746;32;20120;-81
2023/01/15 01:22:40;;;;;;;35.00;14.65;;;;;;;7.48;60.57;98900.00;4425780;32;20082;-82
2023/01/15 01:25:06;;;;;;;35.03;14.43;;;;;;;7.28;60.96;98888.56;4411414;32;20164;-81
2023/01/15 01:27:32;;;;;;;31.55;14.48;;;;;;;7.35;60.90;98888.31;4411244;32;20101;-81
2023/01/15 01:29:57;;;;;;;37.35;14.80;;;;;;;7.40;60.60;98891.59;4425720;32;20128;-81
2023/01/15 01:32:22;;;;;;;37.53;14.43;;;;;;;7.32;60.80;98883.16;4424247;32;20077;-81
2023/01/15 01:34:48;;;;;;;28.65;12.80;;;;;;;7.31;60.59;98890.19;4425536;32;20146;-82
2023/01/15 01:37:13;;;;;;;26.30;12.70;;;;;;;7.32;60.55;98880.56;4425539;32;20081;-81
2023/01/15 01:39:38;;;;;;;25.20;11.65;;;;;;;7.28;60.39;98885.06;4431476;32;20157;-82
2023/01/15 01:42:13;;;;;;;25.80;10.88;;;;;;;7.26;60.14;98898.25;4428122;32;20090;-81
2023/01/15 01:44:38;;;;;;;29.95;12.30;;;;;;;7.16;60.24;98885.56;4425521;32;20164;-82
2023/01/15 01:47:08;;;;;;;27.65;11.85;;;;;;;7.15;60.27;98884.72;4425541;32;20093;-82
2023/01/15 01:49:35;;;;;;;28.20;12.93;;;;;;;7.16;60.49;98883.78;4411563;32;20119;-82
2023/01/15 01:52:04;;;;;;;37.03;13.60;;;;;;;7.21;60.54;98867.91;4411584;32;20177;-83
2023/01/15 01:54:31;;;;;;;27.77;11.88;;;;;;;7.14;60.51;98867.28;4411549;32;20149;-81
2023/01/15 01:56:56;;;;;;;25.20;12.45;;;;;;;7.09;60.60;98843.88;4411570;32;20165;-81
2023/01/15 01:59:22;;;;;;;26.98;11.98;;;;;;;7.11;60.55;98850.81;4411532;32;20086;-80
2023/01/15 02:01:48;;;;;;;30.40;11.40;;;;;;;7.11;60.22;98850.81;4411488;32;20098;-80
2023/01/15 02:04:14;;;;;;;27.33;10.90;;;;;;;7.03;60.27;98853.72;4411492;32;20117;-80
2023/01/15 02:06:41;;;;;;;34.33;12.43;;;;;;;7.00;60.16;98844.25;4411375;32;20453;-80
2023/01/15 02:09:07;;;;;;;37.17;10.70;;;;;;;6.94;60.57;98848.88;4425222;32;20132;-80
2023/01/15 02:11:33;;;;;;;24.63;11.15;;;;;;;6.93;60.51;98832.28;4425216;32;20125;-79
2023/01/15 02:14:51;;;;;;;27.65;10.73;;;;;;;6.93;60.31;98827.06;4425303;32;20093;-82
2023/01/15 02:17:26;;;;;;;22.77;10.27;;;;;;;6.93;60.19;98828.81;4400344;32;20503;-82
2023/01/15 02:20:08;;;;;;;25.05;10.05;;;;;;;6.94;60.09;98826.16;4411505;32;20086;-82
2023/01/15 02:23:11;;;;;;;22.65;10.27;;;;;;;6.86;60.14;98818.59;4411576;32;20116;-82
2023/01/15 02:25:46;;;;;;;43.13;11.82;;;;;;;6.87;60.28;98822.91;4425258;32;20434;-82
2023/01/15 02:28:24;;;;;;;22.05;10.60;;;;;;;6.88;60.40;98832.47;4423970;32;20363;-82
2023/01/15 02:30:56;;;;;;;;;;;;;;;6.86;60.47;98828.22;4424339;32;20191;-82
2023/01/15 02:33:33;;;;;;;30.15;10.98;;;;;;;6.87;60.63;98827.28;4425332;32;20012;-82
2023/01/15 02:35:59;;;;;;;26.65;10.77;;;;;;;6.95;60.36;98827.00;4415324;32;20165;-82
2023/01/15 02:38:30;;;;;;;26.62;11.55;;;;;;;6.96;60.31;98819.09;4423713;32;20164;-82
2023/01/15 02:40:58;;;;;;;23.00;10.18;;;;;;;6.99;60.17;98811.13;4440189;32;20124;-82
2023/01/15 02:43:24;;;;;;;27.73;10.98;;;;;;;6.95;60.20;98811.28;4440466;32;20093;-82
2023/01/15 02:45:52;;;;;;;23.73;10.57;;;;;;;6.94;60.01;98809.59;4426549;32;20109;-82
2023/01/15 02:48:21;;;;;;;36.10;11.88;;;;;;;6.97;60.18;98801.59;4426472;32;20109;-81
2023/01/15 02:50:54;;;;;;;26.00;10.77;;;;;;;6.98;60.30;98790.22;4426439;32;20092;-81
2023/01/15 02:53:22;;;;;;;36.22;11.43;;;;;;;6.98;60.11;98782.37;4426574;32;20151;-82
2023/01/15 02:55:50;;;;;;;23.05;10.05;;;;;;;6.84;60.11;98785.53;4426371;32;20097;-82
2023/01/15 02:58:20;;;;;;;26.73;11.50;;;;;;;6.89;60.35;98783.56;4440471;32;20119;-82
2023/01/15 03:00:48;;;;;;;22.90;11.05;;;;;;;6.90;60.25;98801.00;4426324;32;20108;-81
2023/01/15 03:03:15;;;;;;;24.15;11.27;;;;;;;6.86;60.32;98794.19;4426422;32;20101;-81
2023/01/15 03:05:57;;;;;;;27.33;11.30;;;;;;;6.83;60.42;98784.66;4426447;32;20131;-81
2023/01/15 03:08:22;;;;;;;23.70;11.10;;;;;;;6.85;60.76;98784.59;4426023;32;20101;-80
2023/01/15 03:11:02;;;;;;;26.05;10.38;;;;;;;6.88;60.84;98784.50;4440345;32;20085;-79
2023/01/15 03:13:57;;;;;;;25.55;11.35;;;;;;;6.85;60.90;98780.22;4426433;32;20077;-80
2023/01/15 03:16:39;;;;;;;28.80;10.13;;;;;;;6.82;61.09;98776.88;4349819;32;20145;-82
2023/01/15 03:19:27;;;;;;;25.80;10.60;;;;;;;6.87;60.92;98780.16;4350313;32;20095;-81
2023/01/15 03:21:58;;;;;;;49.90;12.07;;;;;;;6.84;60.80;98780.31;4349827;32;20121;-81
2023/01/15 03:24:28;;;;;;;30.83;11.02;;;;;;;6.82;60.67;98777.72;4337213;32;20489;-83
2023/01/15 03:26:53;;;;;;;23.48;10.38;;;;;;;6.79;60.61;98777.00;4349722;32;20126;-83
2023/01/15 03:29:20;;;;;;;25.08;10.27;;;;;;;6.78;60.48;98765.69;4362168;32;20170;-84
2023/01/15 03:31:45;;;;;;;23.08;9.95;;;;;;;6.80;60.18;98765.59;4349880;32;20121;-79
2023/01/15 03:34:11;;;;;;;24.70;9.98;;;;;;;6.73;60.45;98767.63;4362171;32;20107;-79
2023/01/15 03:36:37;;;;;;;23.73;9.95;;;;;;;6.73;60.42;98769.38;4349537;32;20131;-78
2023/01/15 03:39:03;;;;;;;30.12;10.82;;;;;;;6.71;60.41;98758.97;4362229;32;20133;-79
2023/01/15 03:41:51;;;;;;;24.80;10.98;;;;;;;6.75;60.28;98768.41;4337281;32;20091;-82
2023/01/15 03:44:22;;;;;;;37.40;11.25;;;;;;;6.81;60.19;98769.94;4362437;32;20838;-81
2023/01/15 03:47:00;;;;;;;26.12;10.63;;;;;;;6.68;60.47;98762.56;4361917;32;20823;-83
2023/01/15 03:49:44;;;;;;;37.42;12.00;;;;;;;6.72;60.71;98760.66;4349691;32;20106;-82
2023/01/15 03:52:09;;;;;;;29.48;11.35;;;;;;;6.68;60.80;98765.19;4364428;32;20128;-81
2023/01/15 03:54:48;;;;;;;29.75;10.95;;;;;;;6.72;60.95;98758.03;4439920;32;20150;-81
2023/01/15 03:57:22;;;;;;;;;;;;;;;6.74;60.94;98761.47;4426382;32;20135;-82
2023/01/15 03:59:54;;;;;;;25.15;10.65;;;;;;;6.70;61.01;98759.88;4420872;32;20336;-82
2023/01/15 04:02:21;;;;;;;40.30;12.18;;;;;;;6.76;61.02;98764.00;4412397;32;20116;-82
2023/01/15 04:04:47;;;;;;;23.70;10.70;;;;;;;6.76;60.86;98761.41;4410433;32;20081;-81
2023/01/15 04:07:12;;;;;;;39.78;11.73;;;;;;;6.77;60.85;98770.97;4410501;32;20098;-81
2023/01/15 04:09:38;;;;;;;28.80;11.18;;;;;;;6.80;60.82;98776.94;4424264;32;20108;-81
2023/01/15 04:12:05;;;;;;;27.48;11.55;;;;;;;6.77;60.85;98778.81;4410433;32;20111;-81
2023/01/15 04:14:30;;;;;;;26.92;10.50;;;;;;;6.75;61.07;98762.31;4424204;32;20526;-81
2023/01/15 04:16:56;;;;;;;24.15;10.23;;;;;;;6.76;61.16;98762.28;4410397;32;20160;-81
2023/01/15 04:19:21;;;;;;;24.95;10.90;;;;;;;6.76;61.10;98759.66;4424067;32;20089;-81
2023/01/15 04:21:47;;;;;;;29.48;12.65;;;;;;;6.81;60.79;98759.47;4423968;32;20082;-81
2023/01/15 04:24:12;;;;;;;23.73;10.90;;;;;;;6.85;60.67;98753.19;4424035;32;20156;-81
2023/01/15 04:26:37;;;;;;;25.88;10.80;;;;;;;6.79;60.99;98748.19;4423925;32;20359;-81
2023/01/15 04:29:03;;;;;;;38.15;13.10;;;;;;;6.79;61.17;98742.97;4422941;32;20106;-82
2023/01/15 04:31:31;;;;;;;38.78;10.85;;;;;;;6.85;61.30;98740.94;4424009;32;20105;-83
2023/01/15 04:33:56;;;;;;;29.27;10.23;;;;;;;6.83;61.06;98742.75;4423896;32;20090;-84
2023/01/15 04:36:22;;;;;;;26.62;10.75;;;;;;;6.83;61.18;98745.38;4410072;32;20125;-82
2023/01/15 04:38:47;;;;;;;23.52;10.60;;;;;;;6.85;61.09;98738.31;4423843;32;20075;-82
2023/01/15 04:44:06;;;;;;;26.00;10.77;;;;;;;6.82;60.81;98737.63;4423869;32;20151;-82
2023/01/15 04:46:42;;;;;;;24.70;10.57;;;;;;;6.80;60.61;98745.53;4423749;32;21899;-81
2023/01/15 04:49:12;;;;;;;22.98;10.02;;;;;;;6.82;60.80;98740.22;4410011;32;20125;-81
2023/01/15 04:51:38;;;;;;;25.77;10.77;;;;;;;6.88;60.59;98732.12;4423791;32;20378;-82
2023/01/15 04:54:05;;;;;;;24.27;10.18;;;;;;;6.91;60.19;98731.97;4409862;32;20100;-81
2023/01/15 04:56:30;;;;;;;24.65;10.63;;;;;;;6.86;60.41;98747.03;4409762;32;20157;-81
2023/01/15 04:58:59;;;;;;;24.90;11.50;;;;;;;6.88;60.49;98742.59;4423599;32;20116;-81
2023/01/15 05:01:24;;;;;;;26.08;11.35;;;;;;;6.94;60.46;98734.50;4423647;32;20086;-82
2023/01/15 05:03:50;;;;;;;27.70;11.15;;;;;;;6.99;60.29;98740.41;4425408;32;20475;-82
2023/01/15 05:06:17;;;;;;;29.10;11.15;;;;;;;6.99;60.31;98729.06;4411766;32;20098;-82
2023/01/15 05:08:43;;;;;;;36.57;12.00;;;;;;;6.91;60.44;98731.13;4411610;32;20094;-82
2023/01/15 05:11:08;;;;;;;23.95;9.77;;;;;;;6.93;60.33;98722.28;4411739;32;20245;-82
2023/01/15 05:13:34;;;;;;;26.05;10.60;;;;;;;6.81;60.58;98725.41;4434032;32;20162;-82
2023/01/15 05:16:08;;;;;;;26.00;10.80;;;;;;;6.82;61.07;98729.75;4425760;32;20112;-83
2023/01/15 05:18:34;;;;;;;22.92;9.77;;;;;;;6.80;60.99;98718.47;4425611;32;20549;-83
2023/01/15 05:20:59;;;;;;;22.42;10.27;;;;;;;6.83;60.83;98713.13;4411898;32;20151;-81
2023/01/15 05:23:24;;;;;;;24.58;10.43;;;;;;;6.84;60.45;98704.38;4398899;32;20081;-81
2023/01/15 05:25:50;;;;;;;22.60;9.70;;;;;;;6.74;60.87;98703.88;4411591;32;20153;-82
2023/01/15 05:28:15;;;;;;;20.35;8.40;;;;;;;6.82;60.75;98703.56;4425534;32;20414;-82
2023/01/15 05:30:40;;;;;;;20.40;8.80;;;;;;;6.64;60.92;98703.38;4425541;32;20117;-82
2023/01/15 05:33:06;;;;;;;22.30;10.02;;;;;;;6.68;60.87;98701.50;4425669;32;20097;-82
2023/01/15 05:35:31;;;;;;;20.70;9.05;;;;;;;6.70;60.87;98697.03;4425546;32;20089;-83
2023/01/15 05:37:57;;;;;;;24.10;9.73;;;;;;;6.65;61.12;98689.37;4425501;32;20081;-83
2023/01/15 05:40:22;;;;;;;19.48;8.57;;;;;;;6.68;60.92;98681.41;4425593;32;20607;-83
2023/01/15 05:42:47;;;;;;;33.25;9.88;;;;;;;6.61;61.19;98687.81;4411574;32;20081;-84
2023/01/15 05:45:13;;;;;;;21.55;8.95;;;;;;;6.66;61.10;98683.25;4411620;32;20128;-81
2023/01/15 05:47:38;;;;;;;24.48;9.18;;;;;;;6.59;61.32;98687.03;4425426;32;20560;-82
2023/01/15 05:50:04;;;;;;;22.98;9.75;;;;;;;6.60;61.60;98686.09;4411548;32;20155;-82
2023/01/15 05:52:30;;;;;;;24.63;9.48;;;;;;;6.50;62.02;98675.13;4425505;32;20073;-82
2023/01/15 05:54:55;;;;;;;24.92;9.60;;;;;;;6.52;62.44;98674.25;4425371;32;20364;-82
2023/01/15 05:57:21;;;;;;;41.42;10.02;;;;;;;6.50;62.39;98669.91;4425738;32;20089;-82
2023/01/15 05:59:49;;;;;;;23.05;9.82;;;;;;;6.64;62.28;98668.50;4411729;32;20082;-81
2023/01/15 06:02:14;;;;;;;23.55;8.57;;;;;;;6.64;62.42;98658.03;4424040;32;20085;-82
2023/01/15 06:04:40;;;;;;;21.15;8.52;;;;;;;6.72;62.07;98657.72;4416896;32;20163;-82
2023/01/15 06:07:05;;;;;;;20.42;8.25;;;;;;;6.73;61.77;98659.44;4425245;32;20085;-81
2023/01/15 06:09:31;;;;;;;21.73;8.25;;;;;;;6.77;61.54;98655.78;4423694;32;20116;-82
2023/01/15 06:11:56;;;;;;;20.10;8.75;;;;;;;6.78;61.37;98653.09;4425298;32;20124;-82
2023/01/15 06:14:22;;;;;;;21.00;8.23;;;;;;;6.74;61.47;98655.88;4425090;32;20135;-81
2023/01/15 06:16:48;;;;;;;20.45;8.13;;;;;;;6.58;62.05;98656.50;4411554;32;20154;-82
2023/01/15 06:19:14;;;;;;;30.45;9.63;;;;;;;6.65;61.92;98657.97;4425384;32;20120;-81
2023/01/15 06:21:40;;;;;;;22.50;9.43;;;;;;;6.62;61.91;98662.47;4398579;32;20462;-84
2023/01/15 06:24:06;;;;;;;25.42;8.88;;;;;;;6.67;62.05;98669.22;4425223;32;20098;-81
2023/01/15 06:26:32;;;;;;;20.02;8.70;;;;;;;6.72;62.10;98668.19;4411145;32;20181;-81
2023/01/15 06:28:57;;;;;;;23.48;8.98;;;;;;;6.75;62.13;98657.59;4411484;32;20098;-81
2023/01/15 06:31:25;;;;;;;24.05;9.55;;;;;;;6.77;62.24;98667.09;4425260;32;20119;-80
2023/01/15 06:33:51;;;;;;;24.45;9.40;;;;;;;6.80;62.53;98666.09;4425188;32;20089;-80
2023/01/15 06:36:22;;;;;;;22.73;9.15;;;;;;;6.78;62.59;98666.19;4425196;32;20120;-81
2023/01/15 06:38:48;;;;;;;22.45;9.55;;;;;;;6.84;62.82;98659.84;4425235;32;20077;-83
2023/01/15 06:49:44;;;;;;;23.17;8.60;;;;;;;6.91;62.67;98652.56;4347713;33;20118;-81
2023/01/15 06:52:10;;;;;;;22.48;9.52;;;;;;;6.89;62.50;98650.91;4347456;33;20100;-82
2023/01/15 06:54:35;;;;;;;22.87;9.23;;;;;;;6.91;62.64;98647.34;4347585;33;20119;-81
2023/01/15 06:57:00;;;;;;;24.87;9.88;;;;;;;6.92;62.66;98652.53;4347042;32;20115;-82
2023/01/15 06:59:26;;;;;;;23.67;9.02;;;;;;;6.94;62.67;98634.13;4347494;33;20127;-82
2023/01/15 07:01:51;;;;;;;19.12;9.00;;;;;;;6.92;62.71;98642.03;4347515;33;20111;-82
2023/01/15 07:04:17;;;;;;;38.22;11.23;;;;;;;6.95;62.92;98636.66;4342370;33;164826;-81
2023/01/15 07:06:42;;;;;;;24.95;9.45;;;;;;;7.03;62.71;98636.34;4347343;33;20155;-81
2023/01/15 07:09:08;;;;;;;29.83;9.88;;;;;;;7.01;62.69;98640.78;4347600;33;20119;-82
2023/01/15 07:11:33;;;;;;;27.00;9.90;;;;;;;7.07;62.75;98643.16;4347749;33;20116;-81
2023/01/15 07:14:04;;;;;;;26.33;9.23;;;;;;;7.11;62.82;98651.72;4347682;33;20147;-82
2023/01/15 07:16:33;;;;;;;26.37;10.55;;;;;;;7.07;63.08;98645.78;4347727;33;20104;-82
2023/01/15 07:18:59;;;;;;;23.35;9.57;;;;;;;7.16;63.16;98644.53;4347744;33;20083;-82
2023/01/15 07:21:25;;;;;;;31.27;10.70;;;;;;;7.15;63.29;98637.59;4403457;32;20110;-82
2023/01/15 07:23:51;;;;;;;22.33;9.52;;;;;;;7.21;63.38;98637.34;4426380;32;20125;-82
2023/01/15 07:26:16;;;;;;;25.12;9.63;;;;;;;7.24;62.96;98643.31;4439469;32;20097;-81
2023/01/15 07:28:42;;;;;;;25.60;10.38;;;;;;;7.01;63.39;98643.41;4426238;32;20175;-81
2023/01/15 07:31:07;;;;;;;26.37;10.90;;;;;;;7.09;63.25;98638.72;4440153;32;20097;-81
2023/01/15 07:33:32;;;;;;;25.30;10.70;;;;;;;7.16;63.10;98634.91;4440081;32;20133;-81
2023/01/15 07:36:01;;;;;;;24.05;11.10;;;;;;;7.22;62.95;98639.03;4426084;32;20377;-80
2023/01/15 07:38:27;;;;;;;29.60;12.05;;;;;;;7.24;63.02;98635.44;4440127;32;20474;-81
2023/01/15 07:51:53;;;;;;;24.17;11.45;;;;;;;7.16;63.47;98626.19;4434132;32;20103;-80
2023/01/15 07:54:19;;;;;;;25.73;12.77;;;;;;;7.16;63.57;98631.44;4424464;32;20094;-82
2023/01/15 07:56:44;;;;;;;28.67;13.62;;;;;;;7.24;63.70;98626.69;4424274;32;20086;-82
2023/01/15 07:59:09;;;;;;;31.08;13.43;;;;;;;7.34;63.80;98611.44;4410531;32;20421;-82
2023/01/15 08:01:35;;;;;;;29.42;12.20;;;;;;;7.38;63.84;98620.84;4424336;32;20380;-82
2023/01/15 08:04:00;;;;;;;28.52;12.88;;;;;;;7.38;63.72;98610.38;4424274;32;20086;-81
2023/01/15 08:06:26;;;;;;;27.45;12.57;;;;;;;7.42;63.56;98611.97;4424161;32;20077;-81
2023/01/15 08:08:51;;;;;;;28.25;11.82;;;;;;;7.28;63.99;98609.94;4410198;32;20401;-82
2023/01/15 08:16:47;;;;;;;27.45;12.45;;;;;;;7.37;63.66;98611.31;4424252;32;20159;-81
2023/01/15 08:19:12;;;;;;;26.60;12.75;;;;;;;7.52;63.30;98608.00;4424076;32;20089;-81
2023/01/15 08:21:37;;;;;;;25.02;12.60;;;;;;;7.59;63.07;98604.19;4423885;32;20103;-80
2023/01/15 08:24:03;;;;;;;27.52;12.45;;;;;;;7.59;63.10;98606.81;4424016;32;20164;-81
2023/01/15 08:26:28;;;;;;;29.20;12.48;;;;;;;7.57;63.31;98605.16;4410028;32;20097;-81
2023/01/15 08:28:54;;;;;;;30.88;13.27;;;;;;;7.63;63.09;98600.50;4427891;32;20434;-80
2023/01/15 08:31:19;;;;;;;26.37;11.95;;;;;;;7.41;63.78;98605.84;4435595;32;20089;-82
2023/01/15 08:33:44;;;;;;;28.10;13.55;;;;;;;7.51;63.80;98614.16;4439395;32;20093;-83
2023/01/15 08:36:10;;;;;;;32.95;13.38;;;;;;;7.57;63.63;98602.53;4439258;32;20100;-78
2023/01/15 08:38:35;;;;;;;28.27;13.52;;;;;;;7.52;63.93;98613.25;4426755;32;20112;-80
2023/01/15 08:41:02;;;;;;;28.80;14.02;;;;;;;7.75;63.58;98609.56;4441392;32;20107;-80
2023/01/15 08:43:29;;;;;;;33.45;15.30;;;;;;;7.84;63.21;98598.66;4427287;32;20117;-81
2023/01/15 08:45:56;;;;;;;30.48;15.07;;;;;;;7.97;63.22;98598.09;4427365;32;20121;-79
2023/01/15 08:48:22;;;;;;;33.92;15.10;;;;;;;8.00;63.03;98603.19;4427186;32;20148;-79
2023/01/15 08:50:49;;;;;;;32.17;15.63;;;;;;;7.95;63.36;98602.56;4441236;32;20334;-79
2023/01/15 08:53:15;;;;;;;29.48;14.18;;;;;;;8.03;62.99;98609.13;4427395;32;20106;-79
2023/01/15 08:55:40;;;;;;;29.45;14.45;;;;;;;7.73;63.75;98607.97;4441274;32;20086;-79
2023/01/15 08:58:05;;;;;;;32.35;14.68;;;;;;;8.03;62.92;98606.50;4427152;32;20454;-80
2023/01/15 09:00:31;;;;;;;30.95;13.80;;;;;;;8.22;62.48;98597.78;4427378;32;20082;-79
2023/01/15 09:02:56;;;;;;;28.67;13.73;;;;;;;8.25;62.35;98592.38;4441431;32;20089;-80
2023/01/15 09:05:22;;;;;;;29.80;14.07;;;;;;;8.30;62.21;98587.75;4427173;32;20355;-78
2023/01/15 09:07:47;;;;;;;28.02;13.23;;;;;;;8.39;61.75;98583.84;4440988;32;20078;-82
2023/01/15 09:10:12;;;;;;;27.33;12.68;;;;;;;8.45;61.67;98588.81;4440922;32;20160;-81
2023/01/15 09:12:38;;;;;;;27.60;13.60;;;;;;;8.56;61.14;98581.25;4439736;32;20183;-82
2023/01/15 09:15:04;;;;;;;28.73;13.55;;;;;;;8.55;61.21;98591.84;4428907;32;20116;-81
2023/01/15 09:17:30;;;;;;;28.95;13.48;;;;;;;8.55;61.37;98582.19;4424909;32;20150;-81
2023/01/15 09:19:58;;;;;;;29.58;14.00;;;;;;;8.55;61.29;98574.28;4403095;32;20351;-83
2023/01/15 09:22:26;;;;;;;27.02;13.60;;;;;;;8.65;61.12;98569.44;4420390;32;20160;-82
2023/01/15 09:24:52;;;;;;;28.70;13.05;;;;;;;8.72;61.08;98556.88;4435512;32;20910;-82
2023/01/15 09:27:17;;;;;;;28.65;13.77;;;;;;;8.78;60.99;98560.00;4435587;32;20093;-82
2023/01/15 09:29:43;;;;;;;27.37;12.90;;;;;;;8.52;61.58;98555.22;4435603;32;20176;-82
2023/01/15 09:32:09;;;;;;;25.77;12.90;;;;;;;8.72;60.89;98557.69;4435488;32;20253;-80
2023/01/15 09:34:34;;;;;;;23.52;11.57;;;;;;;8.58;61.10;98554.94;4435904;32;20440;-79
2023/01/15 09:37:00;;;;;;;26.95;12.15;;;;;;;8.66;60.76;98552.78;4431046;32;20116;-80
2023/01/15 09:39:25;;;;;;;25.88;12.15;;;;;;;8.59;60.96;98541.72;4418947;32;20250;-80
2023/01/15 09:42:04;;;;;;;25.95;11.90;;;;;;;8.68;60.72;98536.94;4421393;32;20213;-79
2023/01/15 09:45:17;;;;;;;24.45;11.75;;;;;;;8.64;61.01;98523.94;4421315;32;20101;-80
2023/01/15 09:48:07;;;;;;;23.60;11.60;;;;;;;8.90;60.63;98526.16;4420868;32;20097;-79
2023/01/15 09:50:51;;;;;;;24.90;11.07;;;;;;;8.81;60.62;98517.84;4435439;32;20078;-81
2023/01/15 09:53:25;;;;;;;25.20;12.05;;;;;;;8.61;61.30;98507.50;4435045;32;20176;-79
2023/01/15 09:55:51;;;;;;;25.58;12.50;;;;;;;8.65;61.55;98501.16;4435264;32;20088;-77
2023/01/15 09:58:19;;;;;;;24.75;12.07;;;;;;;8.61;61.76;98499.63;4419384;32;20156;-77
2023/01/15 10:00:46;;;;;;;;;;;;;;;8.43;62.31;98494.38;4421299;32;20082;-77
2023/01/15 10:03:36;;;;;;;22.77;10.75;;;;;;;8.70;61.41;98485.19;4423889;32;19985;-77
2023/01/15 10:06:16;;;;;;;24.35;11.40;;;;;;;9.08;60.29;98487.56;4435960;32;20119;-80
2023/01/15 10:08:47;;;;;;;23.33;10.27;;;;;;;9.07;60.15;98485.88;4432574;32;20085;-80
2023/01/15 10:11:15;;;;;;;22.92;10.48;;;;;;;9.19;60.04;98475.56;4426736;32;20085;-79
2023/01/15 10:13:50;;;;;;;22.90;11.00;;;;;;;9.19;60.05;98466.81;4432751;32;20488;-81
2023/01/15 10:16:25;;;;;;;23.92;10.65;;;;;;;9.30;59.76;98463.63;4407608;32;20094;-82
2023/01/15 10:18:51;;;;;;;20.77;9.68;;;;;;;9.48;59.42;98457.31;4434903;32;20562;-79
2023/01/15 10:21:50;;;;;;;23.87;10.38;;;;;;;9.50;58.93;98452.00;4419693;32;20118;-82
2023/01/15 10:24:18;;;;;;;26.37;11.55;;;;;;;9.40;59.08;98443.78;4435647;32;20105;-79
2023/01/15 10:26:53;;;;;;;22.58;9.82;;;;;;;9.25;59.36;98437.56;4433943;32;20094;-81
2023/01/15 10:29:40;;;;;;;21.45;10.00;;;;;;;9.41;59.23;98433.19;4438211;32;20097;-83
2023/01/15 10:32:17;;;;;;;22.13;10.00;;;;;;;9.52;58.59;98422.06;4435592;32;20490;-79
2023/01/15 10:34:52;;;;;;;17.75;9.23;;;;;;;9.56;58.75;98425.34;4428475;32;20162;-83
2023/01/15 10:37:20;;;;;;;22.55;9.50;;;;;;;9.70;58.36;98429.84;4427005;32;20098;-83
2023/01/15 10:40:14;;;;;;;22.30;10.43;;;;;;;9.67;57.94;98422.13;4422272;32;20093;-83
2023/01/15 10:42:51;;;;;;;21.15;9.07;;;;;;;9.70;57.95;98422.81;4427178;32;20085;-79
2023/01/15 10:45:28;;;;;;;20.40;9.02;;;;;;;9.79;58.06;98409.13;4427609;32;20098;-79
2023/01/15 10:48:00;;;;;;;18.80;8.70;;;;;;;9.28;59.06;98420.78;4408191;32;20101;-82
2023/01/15 10:50:26;;;;;;;19.12;8.27;;;;;;;9.68;58.08;98411.53;4427153;32;20093;-82
2023/01/15 10:53:21;;;;;;;22.40;9.60;;;;;;;9.83;57.54;98400.13;4430592;32;20139;-81
2023/01/15 10:55:50;;;;;;;19.48;8.98;;;;;;;9.65;58.03;98395.91;4419508;32;20128;-81
2023/01/15 10:58:32;;;;;;;19.85;8.50;;;;;;;9.75;57.75;98385.69;4423894;32;20398;-81
2023/01/15 11:01:05;;;;;;;20.08;9.32;;;;;;;9.73;57.59;98375.25;4436026;32;20460;-80
2023/01/15 11:03:35;;;;;;;21.08;8.90;;;;;;;9.77;58.07;98366.28;4422167;32;20123;-79
2023/01/15 11:06:01;;;;;;;21.30;9.07;;;;;;;9.94;57.75;98359.19;4422316;32;20139;-82
2023/01/15 11:08:29;;;;;;;19.08;8.93;;;;;;;10.08;57.44;98359.19;4426366;32;20358;-82
2023/01/15 11:10:57;;;;;;;20.55;9.50;;;;;;;9.85;57.69;98368.47;4430716;32;20094;-81
2023/01/15 11:21:50;;;;;;;20.37;8.38;;;;;;;10.05;56.82;98335.72;4422988;32;20164;-80
2023/01/15 11:24:17;;;;;;;20.27;9.25;;;;;;;10.21;56.15;98333.00;4411784;32;20103;-78
2023/01/15 11:26:47;;;;;;;17.52;9.10;;;;;;;10.21;55.91;98336.47;4404610;32;20461;-78
2023/01/15 11:29:39;;;;;;;19.27;8.32;;;;;;;10.26;56.47;98330.06;4416965;32;20157;-78
2023/01/15 11:32:18;;;;;;;18.80;8.70;;;;;;;10.46;55.91;98334.19;4434903;32;20093;-78
2023/01/15 11:34:52;;;;;;;19.67;8.98;;;;;;;10.30;55.82;98316.69;4417139;32;20442;-78
2023/01/15 11:37:17;;;;;;;19.73;9.43;;;;;;;10.34;55.40;98320.81;4431718;32;20127;-77
2023/01/15 11:40:06;;;;;;;20.15;9.65;;;;;;;10.51;54.71;98321.59;4424960;32;20102;-79
2023/01/15 11:51:07;;;;;;;19.40;9.20;;;;;;;10.57;55.21;98277.25;4416781;32;20115;-78
2023/01/15 11:53:43;;;;;;;20.75;10.50;;;;;;;10.68;55.30;98276.59;4419346;32;20448;-80
2023/01/15 11:56:10;;;;;;;19.00;9.10;;;;;;;10.61;55.41;98265.59;4422059;32;20116;-79
2023/01/15 11:58:43;;;;;;;20.48;9.93;;;;;;;10.49;55.62;98258.47;4431042;32;20164;-80
2023/01/15 12:01:11;;;;;;;19.45;8.98;;;;;;;10.74;55.14;98255.13;4437428;32;20097;-79
2023/01/15 12:03:39;;;;;;;19.75;9.35;;;;;;;10.71;54.91;98252.69;4411021;32;20093;-79
2023/01/15 12:06:08;;;;;;;17.92;9.18;;;;;;;10.81;54.65;98247.66;4419692;32;20358;-79
2023/01/15 12:08:43;;;;;;;21.73;10.43;;;;;;;10.82;54.66;98244.09;4409616;32;20105;-81
2023/01/15 12:11:15;;;;;;;20.70;9.75;;;;;;;10.73;54.43;98249.94;4416928;32;20109;-78
2023/01/15 12:13:52;;;;;;;20.52;9.70;;;;;;;10.85;54.26;98243.03;4429644;32;20119;-78
2023/01/15 12:16:36;;;;;;;20.02;9.77;;;;;;;10.79;54.14;98244.28;4430353;32;21472;-78
2023/01/15 12:19:43;;;;;;;23.67;10.88;;;;;;;10.79;54.41;98253.03;4440348;32;20136;-79
2023/01/15 12:22:38;;;;;;;20.12;9.85;;;;;;;10.75;54.74;98251.53;4425128;32;20119;-78
2023/01/15 12:25:17;;;;;;;19.95;9.32;;;;;;;10.94;54.24;98245.09;4377271;32;20124;-79
2023/01/15 12:27:51;;;;;;;22.15;10.05;;;;;;;10.77;54.27;98239.09;4365432;32;20201;-81
2023/01/15 12:30:28;;;;;;;22.50;10.75;;;;;;;10.69;54.70;98245.81;4378654;32;20114;-81